createdAt,value
2022-12-06T00:02:10.854Z,11.75
2022-12-06T00:04:37.550Z,12.05
2022-12-06T00:07:04.005Z,14.52
2022-12-06T00:09:32.148Z,12.43
2022-12-06T00:11:59.427Z,12.13
2022-12-06T00:14:26.889Z,12.57
2022-12-06T00:16:53.526Z,12.10
2022-12-06T00:19:23.162Z,13.63
2022-12-06T00:21:49.914Z,12.30
2022-12-06T00:24:19.334Z,13.55
2022-12-06T00:26:48.010Z,13.38
2022-12-06T00:29:20.274Z,11.32
2022-12-06T00:31:47.837Z,10.88
2022-12-06T00:34:14.357Z,11.77
2022-12-06T00:36:42.234Z,10.13
2022-12-06T00:39:12.201Z,9.15
2022-12-06T00:41:39.223Z,9.63
2022-12-06T00:44:06.242Z,8.32
2022-12-06T00:46:34.005Z,8.18
2022-12-06T00:49:01.831Z,7.75
2022-12-06T00:51:33.119Z,8.27
2022-12-06T00:53:59.866Z,7.47
2022-12-06T00:56:26.832Z,6.85
2022-12-06T00:58:53.315Z,6.82
2022-12-06T01:01:23.275Z,6.63
2022-12-06T01:03:52.132Z,6.13
2022-12-06T01:06:23.124Z,6.68
2022-12-06T01:08:50.227Z,6.95
2022-12-06T01:11:17.780Z,6.25
2022-12-06T01:13:44.355Z,6.50
2022-12-06T01:16:18.259Z,6.50
2022-12-06T01:18:45.529Z,6.07
2022-12-06T01:21:14.543Z,6.25
2022-12-06T01:23:41.223Z,6.40
2022-12-06T01:26:08.212Z,6.30
2022-12-06T01:28:34.599Z,6.50
2022-12-06T01:31:07.297Z,6.35
2022-12-06T01:33:34.201Z,6.28
2022-12-06T01:36:00.637Z,6.72
2022-12-06T01:38:27.070Z,6.38
2022-12-06T01:40:53.475Z,6.13
2022-12-06T01:43:38.238Z,6.00
2022-12-06T01:46:17.707Z,6.00
2022-12-06T01:48:44.398Z,6.22
2022-12-06T01:51:13.778Z,6.40
2022-12-06T01:53:41.645Z,6.40
2022-12-06T01:56:08.890Z,6.05
2022-12-06T01:58:41.442Z,7.15
2022-12-06T02:01:09.734Z,7.07
2022-12-06T02:03:37.462Z,7.00
2022-12-06T02:06:06.118Z,6.72
2022-12-06T02:08:33.572Z,7.20
2022-12-06T02:11:02.217Z,6.85
2022-12-06T02:13:30.693Z,7.25
2022-12-06T02:16:26.579Z,7.20
2022-12-06T02:18:55.856Z,6.88
2022-12-06T02:21:43.228Z,7.15
2022-12-06T02:24:22.595Z,7.30
2022-12-06T02:26:52.836Z,7.07
2022-12-06T02:29:57.693Z,6.53
2022-12-06T02:32:35.478Z,6.82
2022-12-06T02:35:15.544Z,7.10
2022-12-06T02:37:48.870Z,6.60
2022-12-06T02:40:23.808Z,7.40
2022-12-06T02:42:55.479Z,7.18
2022-12-06T02:45:27.462Z,7.97
2022-12-06T02:47:58.082Z,7.95
2022-12-06T02:50:32.557Z,8.15
2022-12-06T02:53:02.170Z,8.30
2022-12-06T02:55:29.902Z,8.57
2022-12-06T02:57:57.485Z,9.05
2022-12-06T03:00:32.002Z,9.73
2022-12-06T03:03:20.335Z,9.27
2022-12-06T03:06:02.931Z,9.77
2022-12-06T03:08:44.511Z,10.13
2022-12-06T03:11:11.260Z,9.85
2022-12-06T03:13:54.663Z,9.25
2022-12-06T03:16:28.217Z,9.55
2022-12-06T03:19:18.222Z,9.13
2022-12-06T03:22:14.854Z,9.32
2022-12-06T03:24:43.282Z,8.52
2022-12-06T03:27:14.242Z,8.35
2022-12-06T03:29:43.182Z,8.20
2022-12-06T03:32:12.622Z,8.63
2022-12-06T03:34:43.614Z,7.60
2022-12-06T03:37:14.666Z,8.13
2022-12-06T03:39:49.728Z,8.05
2022-12-06T03:42:17.695Z,7.50
2022-12-06T03:44:44.231Z,7.80
2022-12-06T03:47:31.161Z,7.68
2022-12-06T03:50:03.027Z,8.90
2022-12-06T03:52:30.793Z,7.50
2022-12-06T03:54:57.320Z,7.18
2022-12-06T03:57:23.807Z,7.40
2022-12-06T03:59:50.263Z,7.25
2022-12-06T04:02:16.735Z,7.13
2022-12-06T04:04:43.378Z,7.30
2022-12-06T04:07:11.665Z,8.23
2022-12-06T04:09:53.213Z,7.40
2022-12-06T04:12:38.263Z,6.80
2022-12-06T04:15:06.370Z,7.35
2022-12-06T04:17:51.523Z,7.47
2022-12-06T04:20:18.028Z,7.00
2022-12-06T04:23:03.173Z,7.80
2022-12-06T04:25:35.031Z,7.95
2022-12-06T04:28:22.263Z,7.60
2022-12-06T04:31:07.420Z,8.13
2022-12-06T04:33:52.297Z,8.02
2022-12-06T04:36:37.158Z,7.75
2022-12-06T04:39:04.012Z,9.07
2022-12-06T04:41:49.078Z,8.73
2022-12-06T04:44:15.740Z,8.18
2022-12-06T04:46:42.273Z,8.20
2022-12-06T04:49:08.809Z,8.18
2022-12-06T04:51:35.208Z,8.35
2022-12-06T04:54:02.121Z,8.48
2022-12-06T04:56:28.677Z,8.38
2022-12-06T04:58:55.115Z,9.35
2022-12-06T05:01:21.592Z,8.55
2022-12-06T05:03:48.261Z,8.85
2022-12-06T05:06:14.753Z,8.90
2022-12-06T05:08:41.247Z,9.35
2022-12-06T05:11:07.787Z,9.20
2022-12-06T05:13:34.175Z,8.50
2022-12-06T05:16:04.614Z,9.50
2022-12-06T05:18:31.830Z,8.82
2022-12-06T05:21:10.507Z,9.82
2022-12-06T05:23:36.938Z,9.02
2022-12-06T05:26:15.491Z,9.10
2022-12-06T05:28:42.719Z,8.85
2022-12-06T05:31:09.724Z,9.60
2022-12-06T05:33:36.632Z,8.55
2022-12-06T05:36:10.977Z,9.57
2022-12-06T05:38:37.680Z,8.60
2022-12-06T05:41:08.019Z,7.72
2022-12-06T05:43:34.776Z,8.40
2022-12-06T05:46:01.337Z,7.55
2022-12-06T05:48:27.949Z,8.38
2022-12-06T05:50:54.378Z,8.27
2022-12-06T05:53:20.878Z,8.50
2022-12-06T05:55:47.859Z,8.15
2022-12-06T05:58:15.219Z,7.72
2022-12-06T06:00:41.938Z,8.15
2022-12-06T06:03:08.443Z,7.82
2022-12-06T06:05:35.010Z,7.95
2022-12-06T06:08:01.405Z,7.75
2022-12-06T06:10:28.337Z,7.53
2022-12-06T06:12:54.818Z,7.93
2022-12-06T06:15:21.261Z,6.78
2022-12-06T06:17:47.719Z,7.20
2022-12-06T06:20:14.266Z,6.55
2022-12-06T06:22:42.322Z,6.78
2022-12-06T06:25:09.472Z,5.88
2022-12-06T06:27:37.755Z,5.78
2022-12-06T06:30:11.109Z,5.45
2022-12-06T06:32:37.744Z,5.13
2022-12-06T06:35:05.078Z,4.88
2022-12-06T06:37:32.996Z,5.60
2022-12-06T06:40:00.969Z,5.32
2022-12-06T06:42:27.652Z,5.55
2022-12-06T06:44:55.445Z,5.07
2022-12-06T06:47:22.886Z,5.32
2022-12-06T06:49:49.355Z,5.35
2022-12-06T06:52:16.144Z,5.50
2022-12-06T06:54:42.534Z,5.30
2022-12-06T06:57:12.853Z,5.38
2022-12-06T06:59:43.088Z,5.55
2022-12-06T07:02:13.191Z,5.45
2022-12-06T07:04:39.752Z,4.90
2022-12-06T07:07:06.213Z,4.90
2022-12-06T07:09:32.637Z,4.97
2022-12-06T07:11:59.030Z,5.07
2022-12-06T07:14:25.501Z,4.97
2022-12-06T07:16:51.980Z,5.30
2022-12-06T07:19:18.444Z,4.30
2022-12-06T07:21:44.819Z,4.40
2022-12-06T07:24:11.237Z,4.50
2022-12-06T07:26:37.717Z,4.32
2022-12-06T07:29:04.459Z,3.80
2022-12-06T07:31:31.036Z,3.95
2022-12-06T07:34:02.228Z,4.32
2022-12-06T07:36:32.697Z,4.00
2022-12-06T07:41:47.048Z,4.05
2022-12-06T07:44:34.090Z,4.00
2022-12-06T07:47:00.578Z,3.58
2022-12-06T07:49:27.126Z,4.30
2022-12-06T07:51:54.987Z,3.90
2022-12-06T07:54:22.263Z,4.50
2022-12-06T07:56:48.845Z,3.95
2022-12-06T07:59:15.394Z,4.00
2022-12-06T08:01:42.663Z,4.10
2022-12-06T08:04:09.447Z,4.15
2022-12-06T08:06:38.767Z,3.90
2022-12-06T08:09:06.902Z,3.70
2022-12-06T08:11:33.439Z,4.28
2022-12-06T08:13:59.892Z,4.13
2022-12-06T08:16:26.463Z,4.20
2022-12-06T08:18:52.917Z,4.13
2022-12-06T08:21:19.583Z,4.18
2022-12-06T08:23:45.959Z,4.53
2022-12-06T08:26:14.851Z,4.07
2022-12-06T08:28:43.268Z,3.92
2022-12-06T08:31:13.458Z,4.70
2022-12-06T08:33:40.332Z,4.28
2022-12-06T08:36:12.741Z,4.90
2022-12-06T08:38:39.945Z,3.97
2022-12-06T08:41:28.113Z,4.57
2022-12-06T08:43:55.556Z,5.00
2022-12-06T08:46:22.392Z,5.25
2022-12-06T08:48:49.055Z,5.43
2022-12-06T08:51:15.446Z,6.68
2022-12-06T08:53:41.848Z,6.40
2022-12-06T08:56:08.562Z,5.07
2022-12-06T08:58:35.076Z,4.82
2022-12-06T09:01:01.504Z,4.38
2022-12-06T09:03:27.936Z,4.43
2022-12-06T09:05:54.360Z,3.88
2022-12-06T09:08:20.789Z,3.50
2022-12-06T09:10:47.223Z,3.50
2022-12-06T09:13:13.659Z,3.60
2022-12-06T09:15:40.081Z,3.25
2022-12-06T09:18:06.494Z,3.50
2022-12-06T09:20:39.878Z,3.55
2022-12-06T09:23:06.285Z,3.50
2022-12-06T09:25:32.958Z,3.42
2022-12-06T09:28:00.114Z,3.13
2022-12-06T09:30:26.782Z,3.10
2022-12-06T09:32:53.381Z,3.20
2022-12-06T09:35:25.058Z,2.58
2022-12-06T09:37:54.552Z,2.50
2022-12-06T09:40:31.184Z,2.60
2022-12-06T09:43:09.612Z,2.40
2022-12-06T09:45:52.381Z,2.50
2022-12-06T09:48:49.102Z,2.30
2022-12-06T09:51:22.257Z,2.50
2022-12-06T09:54:13.805Z,2.85
2022-12-06T09:57:08.476Z,3.10
2022-12-06T09:59:44.152Z,2.95
2022-12-06T10:02:37.002Z,3.10
2022-12-06T10:05:09.546Z,3.00
2022-12-06T10:07:47.504Z,3.10
2022-12-06T10:10:30.950Z,3.40
2022-12-06T10:13:12.698Z,3.22
2022-12-06T10:15:59.384Z,3.47
2022-12-06T10:18:49.401Z,3.80
2022-12-06T10:21:37.795Z,3.38
2022-12-06T10:24:16.387Z,3.80
2022-12-06T10:26:52.840Z,3.78
2022-12-06T10:29:29.132Z,3.75
2022-12-06T10:32:04.229Z,3.88
2022-12-06T10:34:43.047Z,3.78
2022-12-06T10:37:20.843Z,4.10
2022-12-06T10:39:59.692Z,3.83
2022-12-06T10:42:50.538Z,4.00
2022-12-06T10:45:50.185Z,3.92
2022-12-06T10:48:40.769Z,3.80
2022-12-06T10:53:55.597Z,5.13
2022-12-06T10:56:38.118Z,6.00
2022-12-06T10:59:10.448Z,5.93
2022-12-06T11:01:41.645Z,5.85
2022-12-06T11:04:17.200Z,5.60
2022-12-06T11:06:54.492Z,5.82
2022-12-06T11:09:38.505Z,5.90
2022-12-06T11:12:31.922Z,5.75
2022-12-06T11:15:19.758Z,5.78
2022-12-06T11:17:51.234Z,5.15
2022-12-06T11:20:29.214Z,5.45
2022-12-06T11:23:16.551Z,5.75
2022-12-06T11:26:05.041Z,5.47
2022-12-06T11:28:49.274Z,5.10
2022-12-06T11:31:26.062Z,5.28
2022-12-06T11:33:53.136Z,5.18
2022-12-06T11:36:20.293Z,5.13
2022-12-06T11:38:47.069Z,5.03
2022-12-06T11:41:21.242Z,5.03
2022-12-06T11:43:48.140Z,5.30
2022-12-06T11:46:15.618Z,5.40
2022-12-06T11:48:42.544Z,5.30
2022-12-06T11:51:35.278Z,5.45
2022-12-06T11:54:14.716Z,6.03
2022-12-06T11:56:41.226Z,5.55
2022-12-06T11:59:16.848Z,6.00
2022-12-06T12:01:46.840Z,5.53
2022-12-06T12:04:31.751Z,5.20
2022-12-06T12:07:02.403Z,5.38
2022-12-06T12:09:35.547Z,5.63
2022-12-06T12:12:05.729Z,5.55
2022-12-06T12:14:40.319Z,5.28
2022-12-06T12:17:18.345Z,5.95
2022-12-06T12:19:56.890Z,5.32
2022-12-06T12:22:42.429Z,5.43
2022-12-06T12:25:36.483Z,6.15
2022-12-06T12:28:21.590Z,5.13
2022-12-06T12:30:56.355Z,5.18
2022-12-06T12:33:24.760Z,5.43
2022-12-06T12:36:09.276Z,5.22
2022-12-06T12:38:41.502Z,5.15
2022-12-06T12:41:43.931Z,5.30
2022-12-06T12:47:22.443Z,5.50
2022-12-06T12:50:04.421Z,5.35
2022-12-06T12:52:38.065Z,5.70
2022-12-06T12:55:13.742Z,6.40
2022-12-06T12:57:41.908Z,5.47
2022-12-06T13:00:15.995Z,6.47
2022-12-06T13:02:44.710Z,6.50
2022-12-06T13:05:35.059Z,6.55
2022-12-06T13:08:19.837Z,5.75
2022-12-06T13:10:52.805Z,5.43
2022-12-06T13:13:27.742Z,5.40
2022-12-06T13:15:56.610Z,5.63
2022-12-06T13:18:27.887Z,5.35
2022-12-06T13:20:57.818Z,5.70
2022-12-06T13:23:29.911Z,5.35
2022-12-06T13:26:16.454Z,5.55
2022-12-06T13:28:51.599Z,5.38
2022-12-06T13:31:22.977Z,5.40
2022-12-06T13:33:56.569Z,5.80
2022-12-06T13:36:24.351Z,5.72
2022-12-06T13:38:50.824Z,6.20
2022-12-06T13:41:57.580Z,5.85
2022-12-06T13:44:39.292Z,5.70
2022-12-06T13:47:27.517Z,5.50
2022-12-06T13:49:59.078Z,5.72
2022-12-06T13:52:44.026Z,5.68
2022-12-06T13:55:25.928Z,5.40
2022-12-06T13:57:55.458Z,5.65
2022-12-06T14:00:27.858Z,5.68
2022-12-06T14:02:59.267Z,5.60
2022-12-06T14:08:19.286Z,6.57
2022-12-06T14:10:46.298Z,5.82
2022-12-06T14:13:19.963Z,6.90
2022-12-06T14:15:48.867Z,6.35
2022-12-06T14:18:27.554Z,5.88
2022-12-06T14:20:57.430Z,5.82
2022-12-06T14:23:41.700Z,5.80
2022-12-06T14:26:19.795Z,5.30
2022-12-06T14:28:47.523Z,5.80
2022-12-06T14:31:34.850Z,5.50
2022-12-06T14:34:01.958Z,4.80
2022-12-06T14:36:39.952Z,5.10
2022-12-06T14:39:18.468Z,5.43
2022-12-06T14:42:36.927Z,5.25
2022-12-06T14:45:04.792Z,5.63
2022-12-06T14:47:31.847Z,5.57
2022-12-06T14:50:19.408Z,5.03
2022-12-06T14:52:59.704Z,4.85
2022-12-06T14:55:27.555Z,5.80
2022-12-06T14:58:16.958Z,5.43
2022-12-06T15:01:00.915Z,5.35
2022-12-06T15:03:34.822Z,5.10
2022-12-06T15:06:10.676Z,5.20
2022-12-06T15:08:42.155Z,5.20
2022-12-06T15:11:11.613Z,4.70
2022-12-06T15:13:38.824Z,6.03
2022-12-06T15:16:14.243Z,5.88
2022-12-06T15:18:56.818Z,5.97
2022-12-06T15:21:23.195Z,7.18
2022-12-06T15:23:51.964Z,6.97
2022-12-06T15:26:20.800Z,8.00
2022-12-06T15:28:47.711Z,5.90
2022-12-06T15:31:21.632Z,5.10
2022-12-06T15:33:48.632Z,4.38
2022-12-06T15:36:23.916Z,5.95
2022-12-06T15:38:50.355Z,5.40
2022-12-06T15:41:26.096Z,5.60
2022-12-06T15:43:53.954Z,4.70
2022-12-06T15:46:26.497Z,4.70
2022-12-06T15:48:54.411Z,4.32
2022-12-06T15:51:25.906Z,4.10
2022-12-06T15:53:53.907Z,4.10
2022-12-06T15:56:22.757Z,4.30
2022-12-06T15:58:50.535Z,4.65
2022-12-06T16:01:23.994Z,4.63
2022-12-06T16:03:53.176Z,5.18
2022-12-06T16:06:21.435Z,4.72
2022-12-06T16:08:47.989Z,4.70
2022-12-06T16:11:17.399Z,5.55
2022-12-06T16:13:44.119Z,5.28
2022-12-06T16:16:11.261Z,4.85
2022-12-06T16:18:37.990Z,5.03
2022-12-06T16:21:05.548Z,4.80
2022-12-06T16:24:12.338Z,5.03
2022-12-06T16:26:39.406Z,5.00
2022-12-06T16:29:07.225Z,4.88
2022-12-06T16:31:38.013Z,4.90
2022-12-06T16:34:05.253Z,4.70
2022-12-06T16:36:32.454Z,5.20
2022-12-06T16:39:02.124Z,5.88
2022-12-06T16:41:35.989Z,5.63
2022-12-06T16:44:02.963Z,5.40
2022-12-06T16:46:31.982Z,4.93
2022-12-06T16:49:16.108Z,5.85
2022-12-06T16:51:48.486Z,5.20
2022-12-06T16:54:16.165Z,5.15
2022-12-06T16:56:42.782Z,6.53
2022-12-06T16:59:14.879Z,7.15
2022-12-06T17:01:50.205Z,6.93
2022-12-06T17:04:17.377Z,7.72
2022-12-06T17:06:43.825Z,8.13
2022-12-06T17:09:11.803Z,8.65
2022-12-06T17:11:57.868Z,9.55
2022-12-06T17:14:25.285Z,10.07
2022-12-06T17:16:52.065Z,10.75
2022-12-06T17:19:21.010Z,11.60
2022-12-06T17:21:48.563Z,8.23
2022-12-06T17:24:18.046Z,8.23
2022-12-06T17:26:44.727Z,6.43
2022-12-06T17:29:11.207Z,6.43
2022-12-06T17:31:38.705Z,6.20
2022-12-06T17:34:07.475Z,5.70
2022-12-06T17:36:34.527Z,6.13
2022-12-06T17:39:04.636Z,5.68
2022-12-06T17:41:52.035Z,6.07
2022-12-06T17:44:19.220Z,5.45
2022-12-06T17:46:45.712Z,5.65
2022-12-06T17:49:14.520Z,5.20
2022-12-06T17:51:40.919Z,5.70
2022-12-06T17:54:09.348Z,5.40
2022-12-06T17:56:44.433Z,5.20
2022-12-06T17:59:13.729Z,6.82
2022-12-06T18:02:13.062Z,5.50
2022-12-06T18:04:27.813Z,5.38
2022-12-06T18:06:54.765Z,5.80
2022-12-06T18:09:21.196Z,5.40
2022-12-06T18:11:51.182Z,5.75
2022-12-06T18:14:18.734Z,5.10
2022-12-06T18:16:46.253Z,4.75
2022-12-06T18:19:15.468Z,4.80
2022-12-06T18:21:42.337Z,5.03
2022-12-06T18:24:31.797Z,5.07
2022-12-06T18:26:57.827Z,4.68
2022-12-06T18:29:24.480Z,4.50
2022-12-06T18:31:52.415Z,4.28
2022-12-06T18:34:19.425Z,4.60
2022-12-06T18:36:46.369Z,4.40
2022-12-06T18:39:15.812Z,4.82
2022-12-06T18:41:43.911Z,4.80
2022-12-06T18:44:11.721Z,4.75
2022-12-06T18:46:39.223Z,4.97
2022-12-06T18:49:06.948Z,4.70
2022-12-06T18:51:35.593Z,4.90
2022-12-06T18:54:05.048Z,4.63
2022-12-06T18:56:33.173Z,5.30
2022-12-06T18:59:01.314Z,5.00
2022-12-06T19:01:30.200Z,4.78
2022-12-06T19:04:00.591Z,5.15
2022-12-06T19:08:57.303Z,4.75
2022-12-06T19:11:24.062Z,4.55
2022-12-06T19:13:53.423Z,5.40
2022-12-06T19:16:23.078Z,5.43
2022-12-06T19:18:50.433Z,5.35
2022-12-06T19:21:17.600Z,5.35
2022-12-06T19:23:44.172Z,5.35
2022-12-06T19:26:10.575Z,5.43
2022-12-06T19:28:39.761Z,4.93
2022-12-06T19:31:08.454Z,5.03
2022-12-06T19:33:40.796Z,5.13
2022-12-06T19:36:11.568Z,5.03
2022-12-06T19:38:38.028Z,4.85
2022-12-06T19:41:06.154Z,5.05
2022-12-06T19:43:51.625Z,5.20
2022-12-06T19:46:21.914Z,5.38
2022-12-06T19:51:15.766Z,5.40
2022-12-06T19:53:42.875Z,5.72
2022-12-06T19:56:12.826Z,5.47
2022-12-06T19:58:40.231Z,5.50
2022-12-06T20:01:11.833Z,5.32
2022-12-06T20:03:38.314Z,5.70
2022-12-06T20:06:17.869Z,5.13
2022-12-06T20:08:46.018Z,5.50
2022-12-06T20:11:33.541Z,5.60
2022-12-06T20:14:02.564Z,5.53
2022-12-06T20:16:29.719Z,5.38
2022-12-06T20:18:56.647Z,5.60
2022-12-06T20:21:23.581Z,5.88
2022-12-06T20:23:50.179Z,5.47
2022-12-06T20:26:16.675Z,5.80
2022-12-06T20:28:44.342Z,5.30
2022-12-06T20:31:18.296Z,5.80
2022-12-06T20:33:45.400Z,5.38
2022-12-06T20:36:18.193Z,5.32
2022-12-06T20:38:45.137Z,5.40
2022-12-06T20:41:17.689Z,5.18
2022-12-06T20:43:45.651Z,5.45
2022-12-06T20:46:15.338Z,5.30
2022-12-06T20:48:42.906Z,5.63
2022-12-06T20:51:12.375Z,5.57
2022-12-06T20:53:38.824Z,5.47
2022-12-06T20:56:12.885Z,5.70
2022-12-06T20:58:41.511Z,5.50
2022-12-06T21:01:12.707Z,5.10
2022-12-06T21:03:39.235Z,5.82
2022-12-06T21:06:08.124Z,5.20
2022-12-06T21:08:34.519Z,5.30
2022-12-06T21:13:47.931Z,5.82
2022-12-06T21:16:20.402Z,5.30
2022-12-06T21:18:49.214Z,5.40
2022-12-06T21:21:28.237Z,5.57
2022-12-06T21:23:55.324Z,5.60
2022-12-06T21:26:21.753Z,5.88
2022-12-06T21:28:48.465Z,5.95
2022-12-06T21:31:15.098Z,6.25
2022-12-06T21:33:41.578Z,6.20
2022-12-06T21:36:08.294Z,6.15
2022-12-06T21:38:35.343Z,6.88
2022-12-06T21:41:12.129Z,6.22
2022-12-06T21:43:38.677Z,6.90
2022-12-06T21:46:12.485Z,6.18
2022-12-06T21:48:39.135Z,7.40
2022-12-06T21:51:08.403Z,6.75
2022-12-06T21:53:35.034Z,6.55
2022-12-06T21:56:14.814Z,7.10
2022-12-06T21:58:41.230Z,6.15
2022-12-06T22:01:10.289Z,6.30
2022-12-06T22:03:37.355Z,6.90
2022-12-06T22:06:16.823Z,6.93
2022-12-06T22:08:45.137Z,7.03
2022-12-06T22:11:19.625Z,7.72
2022-12-06T22:13:47.167Z,6.57
2022-12-06T22:16:14.504Z,6.25
2022-12-06T22:18:45.407Z,6.63
2022-12-06T22:21:19.209Z,6.47
2022-12-06T22:23:46.598Z,6.47
2022-12-06T22:26:16.088Z,7.32
2022-12-06T22:28:42.803Z,7.27
2022-12-06T22:31:11.237Z,7.10
2022-12-06T22:33:38.000Z,6.82
2022-12-06T22:36:04.740Z,7.43
2022-12-06T22:38:31.277Z,7.70
2022-12-06T22:40:59.118Z,7.32
2022-12-06T22:43:25.663Z,8.25
2022-12-06T22:45:52.754Z,7.07
2022-12-06T22:48:19.447Z,7.20
2022-12-06T22:50:45.867Z,7.80
2022-12-06T22:53:12.273Z,7.65
2022-12-06T22:55:38.707Z,7.93
2022-12-06T22:58:05.167Z,7.78
2022-12-06T23:00:31.598Z,7.60
2022-12-06T23:02:58.677Z,7.80
2022-12-06T23:05:25.255Z,7.32
2022-12-06T23:07:51.798Z,7.88
2022-12-06T23:10:18.382Z,7.55
2022-12-06T23:12:44.848Z,7.75
2022-12-06T23:15:11.441Z,7.68
2022-12-06T23:17:39.168Z,8.13
2022-12-06T23:20:07.240Z,8.32
2022-12-06T23:22:33.736Z,8.10
2022-12-06T23:25:00.140Z,8.13
2022-12-06T23:27:26.573Z,7.65
2022-12-06T23:29:52.972Z,7.38
2022-12-06T23:32:19.489Z,8.20
2022-12-06T23:34:45.869Z,9.70
2022-12-06T23:37:12.308Z,8.82
2022-12-06T23:39:38.699Z,9.15
2022-12-06T23:42:05.157Z,7.80
2022-12-06T23:44:31.576Z,9.38
2022-12-06T23:46:58.084Z,8.77
2022-12-06T23:49:24.504Z,8.93
2022-12-06T23:51:51.356Z,8.93
2022-12-06T23:54:18.814Z,9.13
2022-12-06T23:56:46.075Z,8.82
2022-12-06T23:59:14.825Z,8.43
